Terminal Aerodrome Forecast
Issued by NWS Caribou, ME

Home | Current Version | Previous Version | Text Only | Print | Product List | Glossary On
Versions: 1 2 3 4 5 6 7 8 9 10 11 12 13 14 15
000
FTUS41 KCAR 071727
TAFCAR
TAF
KCAR 071727Z 0718/0818 19013G21KT P6SM SCT060
     FM072200 19010G18KT P6SM BKN050
     FM080200 19010G18KT P6SM VCSH BKN035 OVC070
     FM080500 19010KT 6SM -SHRA OVC025
     FM080900 19008KT 3SM SHRA BR OVC015
     FM081400 22008KT P6SM VCSH BKN025 OVC040
     FM081600 26011KT P6SM BKN045=

USA.gov is the U.S. government's official web portal to all federal, state and local government web resources and services.